Flight Track Log - Related Links

Times and Time Zones

All times are in EDT time to prevent confusion due to time zone crossing. See the AIE803 flight status page for this flight to view local times or setup timezone preferences in your user account.

Time Position Orientation Groundspeed Altitude Reporting Facility
EDT Latitude Longitude Course Direction KTS MPH feet Rate Location/Type
Sun 05:16:32 PM 54.9833 -77.6333 166° South 190 219 7,700  Level Montreal Center
Sun 05:17:32 PM 54.9167 -77.6000 164° South 200 230 9,000 1,250 Climbing Montreal Center
Sun 05:18:00 PM 54.7915 -77.5348 165° South  Level FlightAware Approximate
Sun 05:18:32 PM 54.8667 -77.5667 159° South 210 242 10,200  Level Montreal Center
Sun 05:19:00 PM 54.7215 -77.5033 165° South  Level FlightAware Approximate
Sun 05:19:32 PM 54.8000 -77.5667 180° South 210 242 11,100  Level Montreal Center
Sun 05:20:00 PM 54.6515 -77.4720 165° South  Level FlightAware Approximate
Sun 05:20:32 PM 54.7500 -77.5333 159° South 220 253 11,900  Level Montreal Center
Sun 05:21:00 PM 54.5814 -77.4407 166° South  Level FlightAware Approximate
Sun 05:21:32 PM 54.6833 -77.5000 164° South 220 253 12,800  Level Montreal Center
Sun 05:22:00 PM 54.5114 -77.4096 166° South  Level FlightAware Approximate
Sun 05:22:32 PM 54.6333 -77.4667 159° South 230 265 13,500  Level Montreal Center
Sun 05:23:32 PM 54.5667 -77.4500 172° South 230 265 14,300 750 Climbing Montreal Center
Sun 05:24:32 PM 54.5000 -77.4167 164° South 230 265 15,000 700 Climbing Montreal Center
Sun 05:25:32 PM 54.4333 -77.3833 164° South 240 276 15,700 650 Climbing Montreal Center
Sun 05:26:32 PM 54.3833 -77.3500 159° South 240 276 16,300 600 Climbing Montreal Center
Sun 05:27:32 PM 54.3000 -77.3167 167° South 240 276 16,900 600 Climbing Montreal Center
Sun 05:28:32 PM 54.2333 -77.2833 164° South 250 288 17,500 600 Climbing Montreal Center
Sun 05:29:32 PM 54.1667 -77.2500 164° South 250 288 18,100 550 Climbing Montreal Center
Sun 05:30:32 PM 54.0833 -77.2333 173° South 250 288 18,600 500 Climbing Montreal Center
Sun 05:31:32 PM 54.0167 -77.2000 164° South 250 288 19,100 550 Climbing Montreal Center
Sun 05:32:32 PM 53.9500 -77.1667 164° South 250 288 19,700 500 Climbing Montreal Center
Sun 05:33:32 PM 53.8833 -77.1333 164° South 250 288 20,100 450 Climbing Montreal Center
Sun 05:34:32 PM 53.8167 -77.1000 164° South 250 288 20,600 500 Climbing Montreal Center
Sun 05:35:32 PM 53.7500 -77.0667 164° South 250 288 21,100 450 Climbing Montreal Center
Sun 05:36:32 PM 53.6833 -77.0500 172° South 250 288 21,500 400 Climbing Montreal Center
Sun 05:37:32 PM 53.6167 -77.0167 163° South 250 288 21,900 400 Climbing Montreal Center
Sun 05:38:32 PM 53.5500 -76.9833 163° South 250 288 22,300 450 Climbing Montreal Center
Sun 05:39:32 PM 53.4833 -76.9500 163° South 250 288 22,800 500 Climbing Montreal Center
Sun 05:40:32 PM 53.4167 -76.9167 163° South 250 288 23,300 450 Climbing Montreal Center
Sun 05:41:32 PM 53.3500 -76.9000 172° South 250 288 23,700 350 Climbing Montreal Center
Sun 05:42:32 PM 53.2833 -76.8667 163° South 240 276 24,000 150 Climbing Montreal Center
Sun 05:43:32 PM 53.2167 -76.8333 163° South 260 299 24,000  Level Montreal Center
Sun 05:44:32 PM 53.1333 -76.8000 167° South 270 311 24,000  Level Montreal Center
Sun 05:45:32 PM 53.0667 -76.7500 156° South 280 322 24,000  Level Montreal Center
Sun 05:46:32 PM 52.9833 -76.7167 166° South 290 334 24,000  Level Montreal Center
Sun 05:47:32 PM 52.9000 -76.6833 166° South 290 334 24,000  Level Montreal Center
Sun 05:48:32 PM 52.8167 -76.6667 173° South 290 334 24,000  Level Montreal Center
Sun 05:49:32 PM 52.7500 -76.6333 163° South 290 334 24,000  Level Montreal Center
Sun 05:50:32 PM 52.6667 -76.5667 154° Southeast 290 334 24,000  Level Montreal Center
Sun 05:51:32 PM 52.5833 -76.5500 173° South 290 334 24,000  Level Montreal Center
Sun 05:52:32 PM 52.5167 -76.5167 163° South 290 334 24,000  Level Montreal Center
Sun 05:53:32 PM 52.4333 -76.4833 166° South 290 334 24,000  Level Montreal Center
Sun 05:54:32 PM 52.3500 -76.4667 173° South 290 334 24,000  Level Montreal Center
Sun 05:55:32 PM 52.2667 -76.4000 154° Southeast 290 334 24,000  Level Montreal Center
Sun 05:56:32 PM 52.2000 -76.3833 171° South 290 334 24,000  Level Montreal Center
Sun 05:57:32 PM 52.1167 -76.3500 166° South 290 334 24,000  Level Montreal Center
Sun 05:58:32 PM 52.0500 -76.3167 163° South 280 322 24,000  Level Montreal Center
Sun 05:59:32 PM 51.9667 -76.3000 173° South 290 334 24,000  Level Montreal Center
Sun 06:00:32 PM 51.9000 -76.2667 163° South 290 334 24,000  Level Montreal Center
Sun 06:01:32 PM 51.8167 -76.2167 160° South 290 334 24,000  Level Montreal Center
Sun 06:02:32 PM 51.7167 -76.1833 168° South 290 334 24,000  Level Montreal Center
Sun 06:03:32 PM 51.6333 -76.1500 166° South 290 334 24,000  Level Montreal Center
Sun 06:04:32 PM 51.5667 -76.1333 171° South 290 334 24,000  Level Montreal Center
Sun 06:05:32 PM 51.4833 -76.1000 166° South 290 334 24,000  Level Montreal Center
Sun 06:06:32 PM 51.4167 -76.0500 155° Southeast 290 334 24,000  Level Montreal Center
Sun 06:07:32 PM 51.3333 -76.0167 166° South 280 322 24,000  Level Montreal Center
Sun 06:08:32 PM 51.2500 -76.0000 173° South 280 322 24,000  Level Montreal Center
Sun 06:09:32 PM 51.1833 -75.9667 163° South 280 322 24,000  Level Montreal Center
Sun 06:10:32 PM 51.1000 -75.9333 166° South 280 322 24,000  Level Montreal Center
Sun 06:11:32 PM 51.0333 -75.9167 171° South 280 322 24,000  Level Montreal Center
Sun 06:12:32 PM 50.9500 -75.8500 153° Southeast 280 322 24,000  Level Montreal Center
Sun 06:13:32 PM 50.8833 -75.8333 171° South 280 322 24,000  Level Montreal Center
Sun 06:14:32 PM 50.8000 -75.8000 166° South 280 322 24,000  Level Montreal Center
Sun 06:15:32 PM 50.7333 -75.7833 171° South 280 322 24,000  Level Montreal Center
Sun 06:16:32 PM 50.6667 -75.7500 162° South 280 322 24,000  Level Montreal Center
Sun 06:17:32 PM 50.5833 -75.7333 173° South 280 322 24,000  Level Montreal Center
Sun 06:18:32 PM 50.5167 -75.7000 162° South 280 322 24,000  Level Montreal Center
Sun 06:19:32 PM 50.4333 -75.6667 166° South 280 322 24,000  Level Montreal Center
Sun 06:20:32 PM 50.3667 -75.6167 154° Southeast 280 322 24,000  Level Montreal Center
Sun 06:21:32 PM 50.2833 -75.6000 173° South 280 322 24,000  Level Montreal Center
Sun 06:22:32 PM 50.2167 -75.5667 162° South 280 322 24,000  Level Montreal Center
Sun 06:23:32 PM 50.1333 -75.5500 173° South 280 322 24,000  Level Montreal Center
Sun 06:24:32 PM 50.0500 -75.5167 166° South 270 311 24,000  Level Montreal Center
Sun 06:25:32 PM 49.9667 -75.5000 173° South 270 311 24,000  Level Montreal Center
Sun 06:26:32 PM 49.9000 -75.4667 162° South 270 311 24,000  Level Montreal Center
Sun 06:27:32 PM 49.8333 -75.4167 154° Southeast 270 311 24,000  Level Montreal Center
Sun 06:28:32 PM 49.7500 -75.4000 173° South 270 311 24,000  Level Montreal Center
Sun 06:29:32 PM 49.6833 -75.3667 162° South 270 311 24,000  Level Montreal Center
Sun 06:30:32 PM 49.6167 -75.3500 171° South 270 311 24,000  Level Montreal Center
Sun 06:31:32 PM 49.5333 -75.3167 165° South 270 311 24,000  Level Montreal Center
Sun 06:32:32 PM 49.4667 -75.3000 171° South 270 311 24,000  Level Montreal Center
Sun 06:33:32 PM 49.3833 -75.2667 165° South 270 311 24,000  Level Montreal Center
Sun 06:34:32 PM 49.3167 -75.2500 171° South 270 311 24,000  Level Montreal Center
Sun 06:35:32 PM 49.2500 -75.2167 162° South 270 311 24,000  Level Montreal Center
Sun 06:36:32 PM 49.1667 -75.1667 159° South 270 311 24,000  Level Montreal Center
Sun 06:37:32 PM 49.1000 -75.1500 171° South 270 311 24,000  Level Montreal Center
Sun 06:38:32 PM 49.0333 -75.1167 162° South 260 299 24,000  Level Montreal Center
Sun 06:39:32 PM 48.9667 -75.1000 171° South 260 299 24,000  Level Montreal Center
Sun 06:40:32 PM 48.8833 -75.0667 165° South 260 299 24,000  Level Montreal Center
Sun 06:41:32 PM 48.8167 -75.0500 171° South 260 299 24,000  Level Montreal Center
Sun 06:42:32 PM 48.7500 -75.0167 162° South 270 311 24,000  Level Montreal Center
Sun 06:43:32 PM 48.6833 -75.0000 171° South 270 311 24,000  Level Montreal Center
Sun 06:44:32 PM 48.6000 -74.9833 172° South 270 311 24,000  Level Montreal Center
Sun 06:45:32 PM 48.5167 -74.9500 165° South 270 311 24,000  Level Montreal Center
Sun 06:46:32 PM 48.4500 -74.9333 171° South 270 311 24,000  Level Montreal Center
Sun 06:47:32 PM 48.3667 -74.8833 158° South 270 311 24,000  Level Montreal Center
Sun 06:48:32 PM 48.3000 -74.8500 162° South 270 311 24,000  Level Montreal Center
Sun 06:49:32 PM 48.2167 -74.8333 172° South 270 311 24,000  Level Montreal Center
Sun 06:50:32 PM 48.1500 -74.8000 162° South 270 311 24,000  Level Montreal Center
Sun 06:51:32 PM 48.0833 -74.7833 171° South 270 311 24,000  Level Montreal Center
Sun 06:52:32 PM 48.0000 -74.7667 172° South 270 311 24,000  Level Montreal Center
Sun 06:53:32 PM 47.9333 -74.7333 161° South 270 311 24,000  Level Montreal Center
Sun 06:54:32 PM 47.8667 -74.6833 153° Southeast 270 311 24,000  Level Montreal Center
Sun 06:55:32 PM 47.7833 -74.6667 172° South 270 311 24,000  Level Montreal Center
Sun 06:56:32 PM 47.7167 -74.6500 170° South 270 311 24,000  Level Montreal Center
Sun 06:57:32 PM 47.6333 -74.6167 165° South 270 311 24,000  Level Montreal Center
Sun 06:58:32 PM 47.5667 -74.6000 170° South 270 311 24,000  Level Montreal Center
Sun 06:59:32 PM 47.5000 -74.5833 170° South 270 311 24,000  Level Montreal Center
Sun 07:00:32 PM 47.4167 -74.5500 165° South 270 311 24,000  Level Montreal Center
Sun 07:01:32 PM 47.3500 -74.5333 170° South 270 311 24,000  Level Montreal Center
Sun 07:02:32 PM 47.2833 -74.5000 161° South 270 311 24,000  Level Montreal Center
Sun 07:03:32 PM 47.2167 -74.4833 170° South 270 311 24,000  Level Montreal Center
Sun 07:04:32 PM 47.1167 -74.4333 161° South 270 311 24,000  Level Montreal Center
Sun 07:05:32 PM 47.0500 -74.4167 170° South 270 311 24,000  Level Montreal Center
Sun 07:06:32 PM 46.9833 -74.4000 170° South 270 311 24,000  Level Montreal Center
Sun 07:07:32 PM 46.9000 -74.4000 180° South 260 299 24,000  Level Montreal Center
Sun 07:08:32 PM 46.8333 -74.4167 190° South 250 288 24,000  Level Montreal Center
Sun 07:09:32 PM 46.7667 -74.4167 180° South 250 288 24,000  Level Montreal Center
Sun 07:10:32 PM 46.7000 -74.4333 190° South 250 288 24,000  Level Montreal Center
Sun 07:11:32 PM 46.6333 -74.4333 180° South 260 299 24,000  Level Montreal Center
Sun 07:12:32 PM 46.5500 -74.4333 180° South 260 299 24,000 -550 Level Montreal Center
Sun 07:13:32 PM 46.4833 -74.4500 190° South 270 311 22,900 -1,400 Descending Montreal Center
Sun 07:14:32 PM 46.3833 -74.4667 187° South 310 357 21,200 -1,650 Descending Montreal Center
Sun 07:15:32 PM 46.3000 -74.4667 180° South 320 368 19,600 -1,600 Descending Montreal Center
Sun 07:16:32 PM 46.2167 -74.4667 180° South 310 357 18,000 -1,550 Descending Montreal Center
Sun 07:17:32 PM 46.1333 -74.4833 188° South 300 345 16,500 -1,550 Descending Montreal Center
Sun 07:18:32 PM 46.0500 -74.5000 188° South 300 345 14,900 -1,600 Descending Montreal Center
Sun 07:19:32 PM 45.9667 -74.4167 145° Southeast 310 357 13,300 -1,600 Descending Montreal Center
Sun 07:20:32 PM 45.9167 -74.3333 131° Southeast 320 368 11,700 -1,600 Descending Montreal Center
Sun 07:21:32 PM 45.8500 -74.2667 145° Southeast 310 357 10,100 -1,550 Descending Montreal Center
Sun 07:22:32 PM 45.7833 -74.1833 139° Southeast 300 345 8,600 -1,050 Descending Montreal Center
Sun 07:23:32 PM 45.7333 -74.1000 131° Southeast 290 334 8,000 -300 Descending Montreal Center
Sun 07:24:32 PM 45.7000 -74.0000 115° Southeast 270 311 8,000  Level Montreal Center
Sun 07:25:32 PM 45.6500 -73.9000 126° Southeast 270 311 8,000 -500 Level Montreal Center
Sun 07:26:32 PM 45.6167 -73.8167 120° Southeast 260 299 7,000 -1,000 Descending Montreal Center
Sun 07:27:32 PM 45.6000 -73.7333 106° East 230 265 6,000 -500 Descending Montreal Center
Sun 07:28:32 PM 45.6333 -73.6667 54° Northeast 200 230 6,000 -450 Level Montreal Center
Sun 07:29:32 PM 45.6833 -73.6167 35° Northeast 210 242 5,100 -550 Descending Montreal Center
Sun 07:30:32 PM 45.7167 -73.5667 46° Northeast 210 242 4,900 -500 Descending Montreal Center
Sun 07:31:32 PM 45.7000 -73.5000 110° East 220 253 4,100 -450 Descending Montreal Center
Sun 07:32:32 PM 45.6500 -73.5167 193° South 210 242 4,000 -450 Descending Montreal Center
Sun 07:33:32 PM 45.6000 -73.5667 215° Southwest 210 242 3,200 -900 Descending Montreal Center
Sun 07:34:32 PM 45.5500 -73.6167 215° Southwest 210 242 2,200 -950 Descending Montreal Center
Sun 07:35:32 PM 45.5167 -73.6667 226° Southwest 180 207 1,300 -850 Descending Montreal Center
Sun 07:36:32 PM 45.4833 -73.7000 215° Southwest 120 138 500 -800 Descending Montreal Center

Login

Don't have an account? Register now (free) for customized features, flight alerts, and more!